sensor_id;sensor_type;location;lat;lon;timestamp;pressure;altitude;pressure_sealevel;temperature;humidity
21728;BME280;11026;50.560;17.852;2023-02-23T00:02:11;99659.94;;;1.17;96.59
21728;BME280;11026;50.560;17.852;2023-02-23T00:04:39;99649.53;;;1.17;96.46
21728;BME280;11026;50.560;17.852;2023-02-23T00:07:08;99649.56;;;1.15;96.32
21728;BME280;11026;50.560;17.852;2023-02-23T00:09:37;99639.97;;;1.20;95.75
21728;BME280;11026;50.560;17.852;2023-02-23T00:12:05;99645.28;;;0.99;96.08
21728;BME280;11026;50.560;17.852;2023-02-23T00:14:36;99647.00;;;0.94;96.69
21728;BME280;11026;50.560;17.852;2023-02-23T00:17:05;99643.53;;;0.95;97.14
21728;BME280;11026;50.560;17.852;2023-02-23T00:19:41;99645.22;;;1.11;96.57
21728;BME280;11026;50.560;17.852;2023-02-23T00:22:10;99643.44;;;1.19;96.13
21728;BME280;11026;50.560;17.852;2023-02-23T00:24:39;99637.31;;;1.27;95.55
21728;BME280;11026;50.560;17.852;2023-02-23T00:27:09;99639.13;;;1.12;95.66
21728;BME280;11026;50.560;17.852;2023-02-23T00:29:36;99636.56;;;1.00;96.15
21728;BME280;11026;50.560;17.852;2023-02-23T00:32:06;99636.63;;;0.88;96.75
21728;BME280;11026;50.560;17.852;2023-02-23T00:34:34;99636.63;;;0.88;97.28
21728;BME280;11026;50.560;17.852;2023-02-23T00:37:02;99637.53;;;0.68;97.77
21728;BME280;11026;50.560;17.852;2023-02-23T00:39:30;99633.22;;;0.64;98.57
21728;BME280;11026;50.560;17.852;2023-02-23T00:41:58;99633.22;;;0.54;99.20
21728;BME280;11026;50.560;17.852;2023-02-23T00:44:30;99641.91;;;0.60;100.00
21728;BME280;11026;50.560;17.852;2023-02-23T00:47:00;99640.19;;;0.56;100.00
21728;BME280;11026;50.560;17.852;2023-02-23T00:49:28;99631.50;;;0.45;100.00
21728;BME280;11026;50.560;17.852;2023-02-23T00:51:55;99628.91;;;0.37;100.00
21728;BME280;11026;50.560;17.852;2023-02-23T00:54:23;99628.06;;;0.37;100.00
21728;BME280;11026;50.560;17.852;2023-02-23T00:56:52;99633.25;;;0.31;100.00
21728;BME280;11026;50.560;17.852;2023-02-23T00:59:19;99629.78;;;0.30;100.00
21728;BME280;11026;50.560;17.852;2023-02-23T01:01:49;99625.44;;;0.35;100.00
21728;BME280;11026;50.560;17.852;2023-02-23T01:04:18;99633.22;;;0.43;100.00
21728;BME280;11026;50.560;17.852;2023-02-23T01:06:45;99624.59;;;0.44;100.00
21728;BME280;11026;50.560;17.852;2023-02-23T01:09:16;99625.47;;;0.32;100.00
21728;BME280;11026;50.560;17.852;2023-02-23T01:11:55;99620.25;;;0.31;100.00
21728;BME280;11026;50.560;17.852;2023-02-23T01:14:23;99625.47;;;0.29;100.00
21728;BME280;11026;50.560;17.852;2023-02-23T01:16:52;99627.19;;;0.29;100.00
21728;BME280;11026;50.560;17.852;2023-02-23T01:19:20;99624.59;;;0.26;100.00
21728;BME280;11026;50.560;17.852;2023-02-23T01:21:50;99617.66;;;0.18;100.00
21728;BME280;11026;50.560;17.852;2023-02-23T01:24:19;99618.50;;;0.16;100.00
21728;BME280;11026;50.560;17.852;2023-02-23T01:26:52;99615.06;;;0.21;100.00
21728;BME280;11026;50.560;17.852;2023-02-23T01:29:21;99613.31;;;0.27;100.00
21728;BME280;11026;50.560;17.852;2023-02-23T01:31:48;99620.25;;;0.23;100.00
21728;BME280;11026;50.560;17.852;2023-02-23T01:34:19;99610.72;;;0.27;100.00
21728;BME280;11026;50.560;17.852;2023-02-23T01:36:48;99611.59;;;0.15;100.00
21728;BME280;11026;50.560;17.852;2023-02-23T01:39:21;99609.00;;;0.16;100.00
21728;BME280;11026;50.560;17.852;2023-02-23T01:41:49;99604.66;;;0.21;100.00
21728;BME280;11026;50.560;17.852;2023-02-23T01:46:46;99606.38;;;0.12;100.00
21728;BME280;11026;50.560;17.852;2023-02-23T01:49:20;99607.25;;;0.15;100.00
21728;BME280;11026;50.560;17.852;2023-02-23T01:54:32;99594.25;;;0.11;100.00
21728;BME280;11026;50.560;17.852;2023-02-23T01:57:04;99583.84;;;0.15;100.00
21728;BME280;11026;50.560;17.852;2023-02-23T01:59:34;99585.56;;;0.15;100.00
21728;BME280;11026;50.560;17.852;2023-02-23T02:02:02;99589.03;;;0.11;100.00
21728;BME280;11026;50.560;17.852;2023-02-23T02:04:35;99596.84;;;0.15;100.00
21728;BME280;11026;50.560;17.852;2023-02-23T02:07:20;99582.97;;;0.10;100.00
21728;BME280;11026;50.560;17.852;2023-02-23T02:09:53;99591.66;;;0.12;100.00
21728;BME280;11026;50.560;17.852;2023-02-23T02:12:42;99588.19;;;0.04;100.00
21728;BME280;11026;50.560;17.852;2023-02-23T02:15:10;99589.06;;;-0.06;100.00
21728;BME280;11026;50.560;17.852;2023-02-23T02:37:45;99586.41;;;0.37;100.00
21728;BME280;11026;50.560;17.852;2023-02-23T02:40:42;99574.28;;;0.36;100.00
21728;BME280;11026;50.560;17.852;2023-02-23T02:46:34;99566.47;;;0.40;100.00
21728;BME280;11026;50.560;17.852;2023-02-23T02:52:02;99567.28;;;0.50;100.00
21728;BME280;11026;50.560;17.852;2023-02-23T02:54:37;99571.63;;;0.53;100.00
21728;BME280;11026;50.560;17.852;2023-02-23T02:57:11;99571.56;;;0.63;100.00
21728;BME280;11026;50.560;17.852;2023-02-23T02:59:47;99571.56;;;0.69;100.00
21728;BME280;11026;50.560;17.852;2023-02-23T03:02:36;99577.66;;;0.71;100.00
21728;BME280;11026;50.560;17.852;2023-02-23T03:05:33;99575.06;;;0.59;100.00
21728;BME280;11026;50.560;17.852;2023-02-23T03:08:38;99567.31;;;0.45;100.00
21728;BME280;11026;50.560;17.852;2023-02-23T03:11:34;99574.22;;;0.57;100.00
21728;BME280;11026;50.560;17.852;2023-02-23T03:14:33;99574.22;;;0.54;100.00
21728;BME280;11026;50.560;17.852;2023-02-23T03:17:46;99566.38;;;0.72;100.00
21728;BME280;11026;50.560;17.852;2023-02-23T03:20:42;99569.84;;;0.65;100.00
21728;BME280;11026;50.560;17.852;2023-02-23T03:26:54;99576.00;;;0.40;100.00
21728;BME280;11026;50.560;17.852;2023-02-23T03:29:59;99570.78;;;0.52;100.00
21728;BME280;11026;50.560;17.852;2023-02-23T03:32:54;99567.28;;;0.47;100.00
21728;BME280;11026;50.560;17.852;2023-02-23T03:41:54;99562.94;;;0.54;100.00
21728;BME280;11026;50.560;17.852;2023-02-23T03:44:57;99572.50;;;0.56;100.00
21728;BME280;11026;50.560;17.852;2023-02-23T03:47:44;99559.47;;;0.47;100.00
21728;BME280;11026;50.560;17.852;2023-02-23T03:50:38;99562.97;;;0.49;100.00
21728;BME280;11026;50.560;17.852;2023-02-23T03:53:32;99569.91;;;0.53;100.00
21728;BME280;11026;50.560;17.852;2023-02-23T03:56:23;99573.38;;;0.49;100.00
21728;BME280;11026;50.560;17.852;2023-02-23T03:59:12;99576.84;;;0.43;100.00
21728;BME280;11026;50.560;17.852;2023-02-23T04:02:03;99568.19;;;0.41;100.00
21728;BME280;11026;50.560;17.852;2023-02-23T04:04:53;99576.88;;;0.34;100.00
21728;BME280;11026;50.560;17.852;2023-02-23T04:07:42;99573.34;;;0.51;100.00
21728;BME280;11026;50.560;17.852;2023-02-23T04:10:32;99575.09;;;0.47;100.00
21728;BME280;11026;50.560;17.852;2023-02-23T04:13:21;99585.53;;;0.41;100.00
21728;BME280;11026;50.560;17.852;2023-02-23T04:15:58;99573.34;;;0.47;100.00
21728;BME280;11026;50.560;17.852;2023-02-23T04:18:35;99573.38;;;0.49;100.00
21728;BME280;11026;50.560;17.852;2023-02-23T04:21:04;99581.19;;;0.44;100.00
21728;BME280;11026;50.560;17.852;2023-02-23T04:23:34;99562.09;;;0.47;100.00
21728;BME280;11026;50.560;17.852;2023-02-23T04:26:02;99569.09;;;0.36;100.00
21728;BME280;11026;50.560;17.852;2023-02-23T04:28:30;99572.53;;;0.44;100.00
21728;BME280;11026;50.560;17.852;2023-02-23T04:31:00;99573.41;;;0.32;100.00
21728;BME280;11026;50.560;17.852;2023-02-23T04:33:28;99576.84;;;0.42;100.00
21728;BME280;11026;50.560;17.852;2023-02-23T04:35:56;99576.88;;;0.36;100.00
21728;BME280;11026;50.560;17.852;2023-02-23T04:38:24;99576.84;;;0.39;100.00
21728;BME280;11026;50.560;17.852;2023-02-23T04:40:51;99574.28;;;0.27;100.00
21728;BME280;11026;50.560;17.852;2023-02-23T04:43:21;99577.72;;;0.41;100.00
21728;BME280;11026;50.560;17.852;2023-02-23T04:45:49;99562.09;;;0.50;100.00
21728;BME280;11026;50.560;17.852;2023-02-23T04:48:17;99569.06;;;0.37;100.00
21728;BME280;11026;50.560;17.852;2023-02-23T04:50:51;99568.19;;;0.38;100.00
21728;BME280;11026;50.560;17.852;2023-02-23T04:53:19;99573.38;;;0.41;100.00
21728;BME280;11026;50.560;17.852;2023-02-23T04:55:46;99569.94;;;0.35;100.00
21728;BME280;11026;50.560;17.852;2023-02-23T04:58:15;99573.38;;;0.35;100.00
21728;BME280;11026;50.560;17.852;2023-02-23T05:00:44;99570.81;;;0.34;100.00
21728;BME280;11026;50.560;17.852;2023-02-23T05:03:11;99576.03;;;0.29;100.00
21728;BME280;11026;50.560;17.852;2023-02-23T05:05:39;99569.94;;;0.30;100.00
21728;BME280;11026;50.560;17.852;2023-02-23T05:08:07;99563.91;;;0.20;100.00
21728;BME280;11026;50.560;17.852;2023-02-23T05:10:34;99576.00;;;0.31;100.00
21728;BME280;11026;50.560;17.852;2023-02-23T05:13:03;99569.94;;;0.26;100.00
21728;BME280;11026;50.560;17.852;2023-02-23T05:15:31;99570.81;;;0.28;100.00
21728;BME280;11026;50.560;17.852;2023-02-23T05:17:58;99571.69;;;0.27;100.00
21728;BME280;11026;50.560;17.852;2023-02-23T05:20:26;99569.94;;;0.22;100.00
21728;BME280;11026;50.560;17.852;2023-02-23T05:22:54;99569.97;;;0.18;100.00
21728;BME280;11026;50.560;17.852;2023-02-23T05:25:21;99564.75;;;0.12;100.00
21728;BME280;11026;50.560;17.852;2023-02-23T05:27:49;99567.38;;;0.16;100.00
21728;BME280;11026;50.560;17.852;2023-02-23T05:30:17;99569.09;;;0.16;100.00
21728;BME280;11026;50.560;17.852;2023-02-23T05:32:45;99571.69;;;0.17;100.00
21728;BME280;11026;50.560;17.852;2023-02-23T05:35:12;99569.94;;;0.19;100.00
21728;BME280;11026;50.560;17.852;2023-02-23T05:37:40;99568.25;;;0.09;100.00
21728;BME280;11026;50.560;17.852;2023-02-23T05:40:07;99569.09;;;0.20;100.00
21728;BME280;11026;50.560;17.852;2023-02-23T05:42:35;99561.31;;;0.13;100.00
21728;BME280;11026;50.560;17.852;2023-02-23T05:45:05;99563.91;;;0.11;100.00
21728;BME280;11026;50.560;17.852;2023-02-23T05:47:33;99563.03;;;0.15;100.00
21728;BME280;11026;50.560;17.852;2023-02-23T05:50:10;99566.50;;;0.19;100.00
21728;BME280;11026;50.560;17.852;2023-02-23T05:52:43;99566.50;;;0.13;100.00
21728;BME280;11026;50.560;17.852;2023-02-23T05:55:11;99568.25;;;0.09;100.00
21728;BME280;11026;50.560;17.852;2023-02-23T05:57:39;99566.50;;;0.10;100.00
21728;BME280;11026;50.560;17.852;2023-02-23T06:00:17;99567.38;;;0.07;100.00
21728;BME280;11026;50.560;17.852;2023-02-23T06:02:44;99569.97;;;0.07;100.00
21728;BME280;11026;50.560;17.852;2023-02-23T06:05:12;99575.19;;;0.10;100.00
21728;BME280;11026;50.560;17.852;2023-02-23T06:07:40;99575.19;;;0.09;100.00
21728;BME280;11026;50.560;17.852;2023-02-23T06:10:08;99576.03;;;0.06;100.00
21728;BME280;11026;50.560;17.852;2023-02-23T06:12:35;99575.19;;;0.16;100.00
21728;BME280;11026;50.560;17.852;2023-02-23T06:15:10;99577.75;;;0.19;100.00
21728;BME280;11026;50.560;17.852;2023-02-23T06:17:37;99577.78;;;0.07;100.00
21728;BME280;11026;50.560;17.852;2023-02-23T06:20:05;99581.22;;;0.15;100.00
21728;BME280;11026;50.560;17.852;2023-02-23T06:22:34;99576.88;;;0.19;100.00
21728;BME280;11026;50.560;17.852;2023-02-23T06:25:01;99582.97;;;0.19;100.00
21728;BME280;11026;50.560;17.852;2023-02-23T06:27:32;99586.41;;;0.31;100.00
21728;BME280;11026;50.560;17.852;2023-02-23T06:30:00;99586.41;;;0.28;100.00
21728;BME280;11026;50.560;17.852;2023-02-23T06:32:27;99589.03;;;0.37;100.00
21728;BME280;11026;50.560;17.852;2023-02-23T06:34:56;99587.25;;;0.43;100.00
21728;BME280;11026;50.560;17.852;2023-02-23T06:37:23;99587.25;;;0.45;100.00
21728;BME280;11026;50.560;17.852;2023-02-23T06:39:50;99581.19;;;0.46;100.00
21728;BME280;11026;50.560;17.852;2023-02-23T06:42:18;99584.66;;;0.42;100.00
21728;BME280;11026;50.560;17.852;2023-02-23T06:44:45;99569.94;;;0.44;100.00
21728;BME280;11026;50.560;17.852;2023-02-23T06:47:13;99589.84;;;0.43;100.00
21728;BME280;11026;50.560;17.852;2023-02-23T06:49:40;99579.41;;;0.57;100.00
21728;BME280;11026;50.560;17.852;2023-02-23T06:52:08;99579.41;;;0.65;100.00
21728;BME280;11026;50.560;17.852;2023-02-23T06:54:36;99575.94;;;0.64;100.00
21728;BME280;11026;50.560;17.852;2023-02-23T06:57:08;99582.88;;;0.68;100.00
21728;BME280;11026;50.560;17.852;2023-02-23T06:59:36;99573.31;;;0.66;100.00
21728;BME280;11026;50.560;17.852;2023-02-23T07:02:03;99565.53;;;0.67;100.00
21728;BME280;11026;50.560;17.852;2023-02-23T07:04:33;99572.44;;;0.65;100.00
21728;BME280;11026;50.560;17.852;2023-02-23T07:07:01;99574.19;;;0.63;100.00
21728;BME280;11026;50.560;17.852;2023-02-23T07:09:30;99578.50;;;0.72;100.00
21728;BME280;11026;50.560;17.852;2023-02-23T07:11:57;99577.59;;;0.84;100.00
21728;BME280;11026;50.560;17.852;2023-02-23T07:14:25;99575.00;;;0.81;100.00
21728;BME280;11026;50.560;17.852;2023-02-23T07:16:53;99573.25;;;0.87;100.00
21728;BME280;11026;50.560;17.852;2023-02-23T07:19:26;99574.97;;;0.91;100.00
21728;BME280;11026;50.560;17.852;2023-02-23T07:21:55;99566.28;;;0.95;100.00
21728;BME280;11026;50.560;17.852;2023-02-23T07:24:24;99558.41;;;1.03;100.00
21728;BME280;11026;50.560;17.852;2023-02-23T07:26:53;99567.97;;;1.01;100.00
21728;BME280;11026;50.560;17.852;2023-02-23T07:29:22;99557.50;;;1.12;100.00
21728;BME280;11026;50.560;17.852;2023-02-23T07:31:54;99560.06;;;1.16;100.00
21728;BME280;11026;50.560;17.852;2023-02-23T07:34:22;99554.81;;;1.22;100.00
21728;BME280;11026;50.560;17.852;2023-02-23T07:36:49;99554.78;;;1.29;100.00
21728;BME280;11026;50.560;17.852;2023-02-23T07:39:17;99553.06;;;1.31;100.00
21728;BME280;11026;50.560;17.852;2023-02-23T07:41:45;99552.06;;;1.48;100.00
21728;BME280;11026;50.560;17.852;2023-02-23T07:44:12;99550.25;;;1.60;99.72
21728;BME280;11026;50.560;17.852;2023-02-23T07:46:40;99551.19;;;1.51;98.81
21728;BME280;11026;50.560;17.852;2023-02-23T07:49:08;99549.41;;;1.56;98.72
21728;BME280;11026;50.560;17.852;2023-02-23T07:51:37;99546.81;;;1.52;98.43
21728;BME280;11026;50.560;17.852;2023-02-23T07:54:08;99544.06;;;1.71;98.61
21728;BME280;11026;50.560;17.852;2023-02-23T07:56:35;99538.75;;;1.81;97.52
21728;BME280;11026;50.560;17.852;2023-02-23T07:59:04;99543.09;;;1.86;97.10
21728;BME280;11026;50.560;17.852;2023-02-23T08:01:31;99538.63;;;1.96;96.62
21728;BME280;11026;50.560;17.852;2023-02-23T08:03:59;99542.81;;;2.15;96.57
21728;BME280;11026;50.560;17.852;2023-02-23T08:06:29;99545.44;;;2.12;95.71
21728;BME280;11026;50.560;17.852;2023-02-23T08:09:00;99533.00;;;2.36;95.42
21728;BME280;11026;50.560;17.852;2023-02-23T08:11:29;99539.78;;;2.54;95.22
21728;BME280;11026;50.560;17.852;2023-02-23T08:13:58;99544.03;;;2.65;93.69
21728;BME280;11026;50.560;17.852;2023-02-23T08:16:30;99547.25;;;2.84;92.76
21728;BME280;11026;50.560;17.852;2023-02-23T08:18:58;99541.09;;;2.90;91.60
21728;BME280;11026;50.560;17.852;2023-02-23T08:21:28;99545.38;;;2.97;90.37
21728;BME280;11026;50.560;17.852;2023-02-23T08:23:57;99551.13;;;2.51;89.24
21728;BME280;11026;50.560;17.852;2023-02-23T08:26:25;99551.25;;;2.40;90.16
21728;BME280;11026;50.560;17.852;2023-02-23T08:28:53;99549.66;;;2.24;91.16
21728;BME280;11026;50.560;17.852;2023-02-23T08:31:21;99546.13;;;2.31;92.17
21728;BME280;11026;50.560;17.852;2023-02-23T08:33:52;99545.19;;;2.37;92.12
21728;BME280;11026;50.560;17.852;2023-02-23T08:36:21;99538.22;;;2.39;92.56
21728;BME280;11026;50.560;17.852;2023-02-23T08:38:49;99535.56;;;2.43;92.06
21728;BME280;11026;50.560;17.852;2023-02-23T08:41:17;99542.41;;;2.52;91.35
21728;BME280;11026;50.560;17.852;2023-02-23T08:43:44;99548.56;;;2.45;91.16
21728;BME280;11026;50.560;17.852;2023-02-23T08:46:13;99540.75;;;2.45;91.55
21728;BME280;11026;50.560;17.852;2023-02-23T08:48:42;99538.09;;;2.48;91.46
21728;BME280;11026;50.560;17.852;2023-02-23T08:51:10;99540.47;;;2.68;91.90
21728;BME280;11026;50.560;17.852;2023-02-23T08:53:37;99535.13;;;2.79;90.95
21728;BME280;11026;50.560;17.852;2023-02-23T08:56:11;99536.06;;;2.75;90.30
21728;BME280;11026;50.560;17.852;2023-02-23T08:58:41;99537.81;;;2.72;90.19
21728;BME280;11026;50.560;17.852;2023-02-23T09:01:19;99542.91;;;2.83;89.91
21728;BME280;11026;50.560;17.852;2023-02-23T09:03:50;99534.75;;;3.08;90.06
21728;BME280;11026;50.560;17.852;2023-02-23T09:06:19;99530.84;;;3.38;88.71
21728;BME280;11026;50.560;17.852;2023-02-23T09:08:47;99523.91;;;3.37;87.13
21728;BME280;11026;50.560;17.852;2023-02-23T09:11:14;99526.22;;;3.55;86.82
21728;BME280;11026;50.560;17.852;2023-02-23T09:13:42;99530.19;;;3.79;85.86
21728;BME280;11026;50.560;17.852;2023-02-23T09:16:09;99523.66;;;4.03;84.72
21728;BME280;11026;50.560;17.852;2023-02-23T09:18:37;99535.53;;;4.23;83.13
21728;BME280;11026;50.560;17.852;2023-02-23T09:21:13;99526.63;;;4.78;82.05
21728;BME280;11026;50.560;17.852;2023-02-23T09:23:45;99517.94;;;5.53;79.34
21728;BME280;11026;50.560;17.852;2023-02-23T09:26:14;99522.72;;;5.73;75.79
21728;BME280;11026;50.560;17.852;2023-02-23T09:28:45;99522.72;;;6.10;74.85
21728;BME280;11026;50.560;17.852;2023-02-23T09:31:15;99526.63;;;5.94;73.35
21728;BME280;11026;50.560;17.852;2023-02-23T09:33:45;99522.38;;;6.55;74.15
21728;BME280;11026;50.560;17.852;2023-02-23T09:36:14;99518.19;;;6.48;71.57
21728;BME280;11026;50.560;17.852;2023-02-23T09:38:44;99507.16;;;6.67;71.95
21728;BME280;11026;50.560;17.852;2023-02-23T09:41:49;99513.97;;;7.33;71.74
21728;BME280;11026;50.560;17.852;2023-02-23T09:44:43;99511.56;;;8.06;68.16
21728;BME280;11026;50.560;17.852;2023-02-23T09:50:19;99519.97;;;8.18;64.54
21728;BME280;11026;50.560;17.852;2023-02-23T09:52:53;99513.59;;;7.98;65.80
21728;BME280;11026;50.560;17.852;2023-02-23T09:55:23;99514.19;;;7.80;64.64
21728;BME280;11026;50.560;17.852;2023-02-23T09:57:55;99514.72;;;7.64;65.53
21728;BME280;11026;50.560;17.852;2023-02-23T10:00:25;99509.13;;;7.74;66.25
21728;BME280;11026;50.560;17.852;2023-02-23T10:03:25;99506.25;;;7.27;66.84
21728;BME280;11026;50.560;17.852;2023-02-23T10:05:58;99502.94;;;7.48;68.26
21728;BME280;11026;50.560;17.852;2023-02-23T10:22:42;99498.53;;;8.27;63.61
21728;BME280;11026;50.560;17.852;2023-02-23T10:25:33;99492.34;;;8.78;63.64
21728;BME280;11026;50.560;17.852;2023-02-23T10:28:02;99482.22;;;8.42;63.19
21728;BME280;11026;50.560;17.852;2023-02-23T10:30:32;99480.69;;;8.35;63.41
21728;BME280;11026;50.560;17.852;2023-02-23T10:33:13;99474.69;;;8.80;63.96
21728;BME280;11026;50.560;17.852;2023-02-23T10:35:56;99470.41;;;9.45;61.78
21728;BME280;11026;50.560;17.852;2023-02-23T10:38:39;99474.44;;;9.53;61.42
21728;BME280;11026;50.560;17.852;2023-02-23T10:41:08;99464.41;;;9.61;61.37
21728;BME280;11026;50.560;17.852;2023-02-23T10:43:37;99465.16;;;9.65;60.60
21728;BME280;11026;50.560;17.852;2023-02-23T10:46:05;99461.44;;;10.12;60.60
21728;BME280;11026;50.560;17.852;2023-02-23T10:48:36;99460.59;;;9.91;58.69
21728;BME280;11026;50.560;17.852;2023-02-23T10:51:12;99465.72;;;9.07;61.17
21728;BME280;11026;50.560;17.852;2023-02-23T10:53:42;99456.25;;;9.46;62.09
21728;BME280;11026;50.560;17.852;2023-02-23T10:56:12;99458.78;;;9.05;61.01
21728;BME280;11026;50.560;17.852;2023-02-23T10:58:47;99457.38;;;8.73;62.14
21728;BME280;11026;50.560;17.852;2023-02-23T11:01:30;99448.50;;;8.75;63.03
21728;BME280;11026;50.560;17.852;2023-02-23T11:04:11;99453.19;;;8.67;62.56
21728;BME280;11026;50.560;17.852;2023-02-23T11:06:40;99442.94;;;8.83;63.81
21728;BME280;11026;50.560;17.852;2023-02-23T11:09:28;99431.03;;;8.95;63.98
21728;BME280;11026;50.560;17.852;2023-02-23T11:12:35;99434.00;;;9.31;62.20
21728;BME280;11026;50.560;17.852;2023-02-23T11:18:18;99416.38;;;10.15;59.69
21728;BME280;11026;50.560;17.852;2023-02-23T11:20:48;99420.22;;;9.87;59.67
21728;BME280;11026;50.560;17.852;2023-02-23T11:23:27;99416.50;;;9.50;61.42
21728;BME280;11026;50.560;17.852;2023-02-23T11:26:00;99415.56;;;9.29;62.71
21728;BME280;11026;50.560;17.852;2023-02-23T11:28:32;99412.19;;;9.26;61.78
21728;BME280;11026;50.560;17.852;2023-02-23T11:31:13;99412.63;;;9.37;62.04
21728;BME280;11026;50.560;17.852;2023-02-23T11:33:42;99405.34;;;9.64;62.60
21728;BME280;11026;50.560;17.852;2023-02-23T11:38:45;99408.50;;;9.30;61.57
21728;BME280;11026;50.560;17.852;2023-02-23T11:41:22;99399.19;;;9.21;63.15
21728;BME280;11026;50.560;17.852;2023-02-23T11:43:51;99396.75;;;9.17;63.06
21728;BME280;11026;50.560;17.852;2023-02-23T11:46:23;99391.69;;;9.10;63.30
21728;BME280;11026;50.560;17.852;2023-02-23T11:48:57;99401.63;;;9.26;63.78
21728;BME280;11026;50.560;17.852;2023-02-23T11:51:28;99390.34;;;9.85;62.80
21728;BME280;11026;50.560;17.852;2023-02-23T11:53:57;99392.09;;;9.86;62.11
21728;BME280;11026;50.560;17.852;2023-02-23T11:56:27;99385.72;;;9.49;62.51
21728;BME280;11026;50.560;17.852;2023-02-23T11:59:06;99382.94;;;10.34;62.28
21728;BME280;11026;50.560;17.852;2023-02-23T12:01:47;99381.13;;;11.10;60.51
21728;BME280;11026;50.560;17.852;2023-02-23T12:04:28;99377.66;;;10.91;58.65
21728;BME280;11026;50.560;17.852;2023-02-23T12:12:50;99362.59;;;10.74;60.63
21728;BME280;11026;50.560;17.852;2023-02-23T12:15:29;99363.00;;;10.06;61.89
21728;BME280;11026;50.560;17.852;2023-02-23T12:18:14;99358.69;;;10.04;63.10
21728;BME280;11026;50.560;17.852;2023-02-23T12:20:46;99356.72;;;10.29;62.43
21728;BME280;11026;50.560;17.852;2023-02-23T12:23:23;99350.94;;;10.20;62.60
21728;BME280;11026;50.560;17.852;2023-02-23T12:26:27;99348.78;;;10.29;62.58
21728;BME280;11026;50.560;17.852;2023-02-23T12:32:21;99337.00;;;10.92;62.20
21728;BME280;11026;50.560;17.852;2023-02-23T12:34:58;99331.34;;;10.99;62.15
21728;BME280;11026;50.560;17.852;2023-02-23T12:37:37;99331.22;;;11.20;61.44
21728;BME280;11026;50.560;17.852;2023-02-23T12:40:26;99336.59;;;11.36;60.92
21728;BME280;11026;50.560;17.852;2023-02-23T12:43:24;99330.31;;;11.55;60.08
21728;BME280;11026;50.560;17.852;2023-02-23T12:46:04;99326.16;;;11.67;59.61
21728;BME280;11026;50.560;17.852;2023-02-23T12:55:12;99316.09;;;11.91;59.51
21728;BME280;11026;50.560;17.852;2023-02-23T13:06:01;99300.72;;;11.65;59.33
21728;BME280;11026;50.560;17.852;2023-02-23T13:11:50;99301.09;;;11.40;61.14
21728;BME280;11026;50.560;17.852;2023-02-23T13:17:04;99284.81;;;11.30;62.07
21728;BME280;11026;50.560;17.852;2023-02-23T13:19:45;99282.84;;;11.86;62.07
21728;BME280;11026;50.560;17.852;2023-02-23T13:26:19;99268.38;;;12.09;60.53
21728;BME280;11026;50.560;17.852;2023-02-23T13:29:02;99270.38;;;12.03;61.85
21728;BME280;11026;50.560;17.852;2023-02-23T13:31:31;99270.28;;;11.72;62.01
21728;BME280;11026;50.560;17.852;2023-02-23T13:34:01;99267.38;;;11.43;63.47
21728;BME280;11026;50.560;17.852;2023-02-23T13:36:34;99267.22;;;11.12;63.96
21728;BME280;11026;50.560;17.852;2023-02-23T13:42:17;99262.56;;;11.34;65.05
21728;BME280;11026;50.560;17.852;2023-02-23T13:45:47;99255.22;;;11.56;64.81
21728;BME280;11026;50.560;17.852;2023-02-23T13:50:41;99257.56;;;11.78;64.38
21728;BME280;11026;50.560;17.852;2023-02-23T13:53:35;99248.59;;;11.98;64.56
21728;BME280;11026;50.560;17.852;2023-02-23T13:56:06;99247.38;;;11.71;64.06
21728;BME280;11026;50.560;17.852;2023-02-23T13:58:35;99243.34;;;11.64;64.98
21728;BME280;11026;50.560;17.852;2023-02-23T14:01:16;99236.78;;;11.71;65.60
21728;BME280;11026;50.560;17.852;2023-02-23T14:03:51;99230.59;;;11.88;65.17
21728;BME280;11026;50.560;17.852;2023-02-23T14:06:22;99227.41;;;11.81;65.47
21728;BME280;11026;50.560;17.852;2023-02-23T14:09:05;99224.28;;;11.90;65.54
21728;BME280;11026;50.560;17.852;2023-02-23T14:11:50;99227.09;;;11.87;66.00
21728;BME280;11026;50.560;17.852;2023-02-23T14:22:32;99225.72;;;11.63;68.17
21728;BME280;11026;50.560;17.852;2023-02-23T14:28:13;99222.69;;;11.02;69.73
21728;BME280;11026;50.560;17.852;2023-02-23T14:39:02;99220.97;;;11.19;71.69
21728;BME280;11026;50.560;17.852;2023-02-23T14:47:13;99214.28;;;11.29;72.12
21728;BME280;11026;50.560;17.852;2023-02-23T14:49:48;99217.41;;;11.02;73.03
21728;BME280;11026;50.560;17.852;2023-02-23T14:52:32;99208.84;;;10.97;73.92
21728;BME280;11026;50.560;17.852;2023-02-23T14:55:39;99208.13;;;10.94;74.37
21728;BME280;11026;50.560;17.852;2023-02-23T14:58:03;99198.78;;;11.21;74.12
21728;BME280;11026;50.560;17.852;2023-02-23T15:00:32;99198.84;;;11.20;73.72
21728;BME280;11026;50.560;17.852;2023-02-23T15:03:09;99197.00;;;11.22;74.09
21728;BME280;11026;50.560;17.852;2023-02-23T15:05:51;99203.22;;;11.21;74.35
21728;BME280;11026;50.560;17.852;2023-02-23T15:08:24;99196.78;;;11.09;74.84
21728;BME280;11026;50.560;17.852;2023-02-23T15:11:10;99193.81;;;10.98;76.05
21728;BME280;11026;50.560;17.852;2023-02-23T15:13:42;99186.50;;;10.86;76.55
21728;BME280;11026;50.560;17.852;2023-02-23T15:16:20;99185.41;;;10.90;76.79
21728;BME280;11026;50.560;17.852;2023-02-23T15:22:01;99190.28;;;10.80;77.67
21728;BME280;11026;50.560;17.852;2023-02-23T15:24:41;99183.78;;;10.70;78.25
21728;BME280;11026;50.560;17.852;2023-02-23T15:27:21;99181.38;;;10.65;78.58
21728;BME280;11026;50.560;17.852;2023-02-23T15:29:53;99173.84;;;10.56;78.56
21728;BME280;11026;50.560;17.852;2023-02-23T15:32:24;99174.41;;;10.45;78.05
21728;BME280;11026;50.560;17.852;2023-02-23T15:34:54;99173.75;;;10.40;77.79
21728;BME280;11026;50.560;17.852;2023-02-23T15:37:46;99173.00;;;10.38;77.70
21728;BME280;11026;50.560;17.852;2023-02-23T15:40:31;99165.97;;;10.37;77.21